createdAt,value
2019-05-14T00:01:42.254Z,101058.13
2019-05-14T00:04:13.964Z,101054.48
2019-05-14T00:06:45.926Z,101053.44
2019-05-14T00:09:17.478Z,101058.25
2019-05-14T00:11:51.249Z,101062.78
2019-05-14T00:14:35.711Z,101068.46
2019-05-14T00:16:55.717Z,101060.50
2019-05-14T00:19:27.374Z,101061.36
2019-05-14T00:21:59.132Z,101064.84
2019-05-14T00:24:32.316Z,101058.41
2019-05-14T00:27:04.084Z,101060.27
2019-05-14T00:29:35.838Z,101058.88
2019-05-14T00:32:07.797Z,101054.54
2019-05-14T00:34:39.247Z,101056.11
2019-05-14T00:37:11.681Z,101055.73
2019-05-14T00:39:43.172Z,101055.22
2019-05-14T00:42:14.734Z,101050.17
2019-05-14T00:44:54.274Z,101052.97
2019-05-14T00:47:21.618Z,101054.27
2019-05-14T00:49:52.972Z,101062.66
2019-05-14T00:52:24.975Z,101058.21
2019-05-14T00:55:01.984Z,101054.13
2019-05-14T00:57:31.607Z,101055.45
2019-05-14T01:00:03.275Z,101056.27
2019-05-14T01:02:35.165Z,101053.78
2019-05-14T01:05:08.729Z,101051.36
2019-05-14T01:07:42.088Z,101049.73
2019-05-14T01:10:13.889Z,101059.70
2019-05-14T01:12:45.540Z,101055.41
2019-05-14T01:15:17.408Z,101065.74
2019-05-14T01:17:48.965Z,101061.22
2019-05-14T01:20:22.551Z,101061.55
2019-05-14T01:22:54.315Z,101062.03
2019-05-14T01:25:24.973Z,101058.66
2019-05-14T01:27:56.084Z,101063.83
2019-05-14T01:30:27.944Z,101061.61
2019-05-14T01:33:01.785Z,101058.66
2019-05-14T01:35:34.739Z,101061.11
2019-05-14T01:38:06.287Z,101055.13
2019-05-14T01:40:41.799Z,101057.31
2019-05-14T01:43:13.799Z,101060.64
2019-05-14T01:45:45.557Z,101059.97
2019-05-14T01:48:17.008Z,101065.44
2019-05-14T01:50:48.659Z,101062.83
2019-05-14T01:53:22.044Z,101068.92
2019-05-14T01:55:53.606Z,101064.69
2019-05-14T01:58:25.378Z,101064.45
2019-05-14T02:00:57.679Z,101063.97
2019-05-14T02:03:29.391Z,101060.98
2019-05-14T02:06:01.672Z,101064.98
2019-05-14T02:08:33.326Z,101061.41
2019-05-14T02:11:04.968Z,101059.02
2019-05-14T02:13:36.729Z,101053.27
2019-05-14T02:16:08.517Z,101059.25
2019-05-14T02:18:41.624Z,101056.36
2019-05-14T02:21:13.232Z,101055.30
2019-05-14T02:23:44.682Z,101058.41
2019-05-14T02:26:16.330Z,101064.51
2019-05-14T02:28:48.110Z,101054.36
2019-05-14T02:31:20.456Z,101053.36
2019-05-14T02:33:52.048Z,101061.02
2019-05-14T02:36:23.769Z,101051.49
2019-05-14T02:38:55.634Z,101057.09
2019-05-14T02:41:29.882Z,101050.84
2019-05-14T02:44:00.686Z,101049.81
2019-05-14T02:46:32.541Z,101044.64
2019-05-14T02:49:04.306Z,101043.97
2019-05-14T02:51:39.156Z,101036.67
2019-05-14T02:54:10.386Z,101035.47
2019-05-14T02:56:42.232Z,101037.06
2019-05-14T02:59:14.195Z,101040.85
2019-05-14T03:01:45.257Z,101042.05
2019-05-14T03:04:19.513Z,101036.91
2019-05-14T03:06:50.398Z,101037.12
2019-05-14T03:09:22.246Z,101038.35
2019-05-14T03:11:54.114Z,101037.61
2019-05-14T03:14:26.073Z,101029.95
2019-05-14T03:16:59.491Z,101029.21
2019-05-14T03:19:31.978Z,101027.30
2019-05-14T03:22:03.526Z,101021.03
2019-05-14T03:24:35.459Z,101033.05
2019-05-14T03:27:09.603Z,101027.70
2019-05-14T03:29:40.579Z,101030.27
2019-05-14T03:32:13.811Z,101032.12
2019-05-14T03:34:45.528Z,101033.84
2019-05-14T03:37:22.631Z,101032.81
2019-05-14T03:39:50.919Z,101033.98
2019-05-14T03:42:22.671Z,101031.13
2019-05-14T03:44:54.741Z,101029.11
2019-05-14T03:47:26.389Z,101030.68
2019-05-14T03:49:58.977Z,101034.02
2019-05-14T03:52:30.996Z,101036.66
2019-05-14T03:55:04.834Z,101038.80
2019-05-14T03:57:39.989Z,101031.23
2019-05-14T04:00:10.973Z,101037.61
2019-05-14T04:02:42.875Z,101032.72
2019-05-14T04:05:18.646Z,101032.73
2019-05-14T04:07:50.292Z,101035.02
2019-05-14T04:10:23.909Z,101037.63
2019-05-14T04:12:59.709Z,101039.27
2019-05-14T04:15:31.605Z,101035.27
2019-05-14T04:18:04.070Z,101035.71
2019-05-14T04:20:39.244Z,101036.61
2019-05-14T04:23:11.771Z,101038.13
2019-05-14T04:25:43.435Z,101040.86
2019-05-14T04:28:19.143Z,101037.00
2019-05-14T04:30:55.348Z,101034.45
2019-05-14T04:33:30.261Z,101041.38
2019-05-14T04:36:00.607Z,101038.81
2019-05-14T04:38:32.066Z,101038.28
2019-05-14T04:41:04.126Z,101038.30
2019-05-14T04:43:35.668Z,101036.23
2019-05-14T04:46:10.477Z,101045.94
2019-05-14T04:48:43.449Z,101036.52
2019-05-14T04:51:14.117Z,101033.56
2019-05-14T04:53:49.368Z,101029.37
2019-05-14T04:56:21.325Z,101037.17
2019-05-14T04:58:53.189Z,101030.89
2019-05-14T05:01:25.190Z,101035.33
2019-05-14T05:03:59.101Z,101033.95
2019-05-14T05:06:30.708Z,101034.25
2019-05-14T05:09:02.668Z,101034.23
2019-05-14T05:11:34.628Z,101033.81
2019-05-14T05:14:08.839Z,101037.42
2019-05-14T05:16:39.441Z,101040.60
2019-05-14T05:19:11.234Z,101037.95
2019-05-14T05:21:42.989Z,101036.82
2019-05-14T05:24:14.852Z,101043.30
2019-05-14T05:26:48.563Z,101039.28
2019-05-14T05:29:20.312Z,101041.02
2019-05-14T05:31:51.870Z,101031.58
2019-05-14T05:34:23.411Z,101045.99
2019-05-14T05:36:55.180Z,101043.70
2019-05-14T05:39:28.268Z,101044.43
2019-05-14T05:41:59.920Z,101042.94
2019-05-14T05:44:31.774Z,101042.53
2019-05-14T05:47:03.728Z,101045.29
2019-05-14T05:49:35.290Z,101047.98
2019-05-14T05:52:08.559Z,101046.23
2019-05-14T05:54:40.138Z,101041.17
2019-05-14T05:57:11.997Z,101039.78
2019-05-14T05:59:43.981Z,101039.39
2019-05-14T06:02:18.374Z,101044.37
2019-05-14T06:04:52.786Z,101045.64
2019-05-14T06:07:24.237Z,101042.83
2019-05-14T06:09:56.101Z,101042.48
2019-05-14T06:12:29.585Z,101044.61
2019-05-14T06:15:00.741Z,101042.67
2019-05-14T06:17:32.388Z,101045.45
2019-05-14T06:20:05.506Z,101039.60
2019-05-14T06:22:38.459Z,101040.05
2019-05-14T06:25:11.773Z,101032.95
2019-05-14T06:27:43.519Z,101035.02
2019-05-14T06:30:18.449Z,101040.34
2019-05-14T06:32:50.214Z,101034.79
2019-05-14T06:35:21.672Z,101039.17
2019-05-14T06:37:53.438Z,101041.64
2019-05-14T06:40:25.072Z,101036.83
2019-05-14T06:42:59.157Z,101033.65
2019-05-14T06:45:30.435Z,101036.80
2019-05-14T06:48:02.498Z,101036.89
2019-05-14T06:50:34.154Z,101033.87
2019-05-14T06:53:08.377Z,101045.16
2019-05-14T06:55:39.617Z,101043.42
2019-05-14T06:58:11.466Z,101045.69
2019-05-14T07:00:43.233Z,101043.64
2019-05-14T07:03:15.086Z,101041.88
2019-05-14T07:05:49.125Z,101035.77
2019-05-14T07:08:21.058Z,101034.76
2019-05-14T07:10:52.815Z,101038.21
2019-05-14T07:13:24.677Z,101041.14
2019-05-14T07:15:58.429Z,101033.36
2019-05-14T07:18:45.210Z,101032.42
2019-05-14T07:21:03.121Z,101029.33
2019-05-14T07:23:34.877Z,101027.23
2019-05-14T07:26:08.444Z,101026.30
2019-05-14T07:28:42.468Z,101022.55
2019-05-14T07:31:12.918Z,101019.00
2019-05-14T07:33:44.568Z,101008.66
2019-05-14T07:36:18.661Z,101002.44
2019-05-14T07:38:49.543Z,100998.59
2019-05-14T07:41:20.985Z,100999.20
2019-05-14T07:43:52.627Z,100994.09
2019-05-14T07:46:24.077Z,100998.56
2019-05-14T07:49:05.425Z,100992.75
2019-05-14T07:51:29.138Z,100992.20
2019-05-14T07:54:00.895Z,100991.89
2019-05-14T07:56:32.437Z,100994.98
2019-05-14T07:59:04.503Z,100993.30
2019-05-14T08:01:38.648Z,100995.66
2019-05-14T08:04:11.598Z,100988.23
2019-05-14T08:06:43.459Z,100988.16
2019-05-14T08:09:15.216Z,100983.81
2019-05-14T08:11:48.077Z,100983.14
2019-05-14T08:14:20.685Z,100980.90
2019-05-14T08:16:52.552Z,100990.36
2019-05-14T08:19:27.219Z,100977.32
2019-05-14T08:21:58.652Z,100980.30
2019-05-14T08:24:32.123Z,100971.11
2019-05-14T08:27:03.769Z,100969.48
2019-05-14T08:29:37.526Z,100976.98
2019-05-14T08:32:09.528Z,100973.13
2019-05-14T08:34:41.086Z,100972.66
2019-05-14T08:37:12.630Z,100974.41
2019-05-14T08:39:44.188Z,100974.79
2019-05-14T08:42:18.562Z,100977.44
2019-05-14T08:44:51.442Z,100984.45
2019-05-14T08:47:23.142Z,100976.46
2019-05-14T08:49:54.491Z,100971.19
2019-05-14T08:52:28.811Z,100969.48
2019-05-14T08:55:10.882Z,100982.66
2019-05-14T08:57:34.293Z,100981.25
2019-05-14T09:00:13.781Z,100974.23
2019-05-14T09:02:42.303Z,100969.95
2019-05-14T09:05:14.255Z,100980.58
2019-05-14T09:07:45.705Z,100967.30
2019-05-14T09:10:19.357Z,100963.13
2019-05-14T09:12:50.653Z,100964.59
2019-05-14T09:15:22.211Z,100965.44
2019-05-14T09:17:53.964Z,100964.34
2019-05-14T09:20:25.821Z,100963.12
2019-05-14T09:22:59.493Z,100959.53
2019-05-14T09:25:30.992Z,100961.89
2019-05-14T09:28:02.836Z,100959.05
2019-05-14T09:30:34.794Z,100949.58
2019-05-14T09:33:08.635Z,100954.11
2019-05-14T09:35:39.392Z,100946.13
2019-05-14T09:38:11.402Z,100952.91
2019-05-14T09:40:43.056Z,100947.84
2019-05-14T09:43:14.813Z,100946.13
2019-05-14T09:45:48.154Z,100948.22
2019-05-14T09:48:20.168Z,100949.34
2019-05-14T09:50:51.827Z,100942.94
2019-05-14T09:53:23.884Z,100950.71
2019-05-14T09:55:55.334Z,100944.80
2019-05-14T09:58:28.202Z,100950.55
2019-05-14T10:01:00.281Z,100957.84
2019-05-14T10:03:31.839Z,100958.30
2019-05-14T10:06:03.698Z,100950.09
2019-05-14T10:08:35.364Z,100946.61
2019-05-14T10:11:07.079Z,100956.71
2019-05-14T10:13:39.503Z,100960.03
2019-05-14T10:16:11.032Z,100958.11
2019-05-14T10:18:42.808Z,100952.69
2019-05-14T10:21:14.656Z,100941.19
2019-05-14T10:23:47.533Z,100940.34
2019-05-14T10:26:20.115Z,100947.78
2019-05-14T10:28:51.968Z,100941.22
2019-05-14T10:31:23.833Z,100942.56
2019-05-14T10:33:55.282Z,100937.75
2019-05-14T10:36:29.822Z,100938.62
2019-05-14T10:39:00.446Z,100937.64
2019-05-14T10:41:34.072Z,100942.16
2019-05-14T10:44:09.057Z,100949.96
2019-05-14T10:46:39.498Z,100936.54
2019-05-14T10:49:19.430Z,100939.11
2019-05-14T10:51:44.648Z,100939.81
2019-05-14T10:54:24.305Z,100935.14
2019-05-14T10:56:49.716Z,100937.29
2019-05-14T10:59:21.680Z,100939.75
2019-05-14T11:01:53.833Z,100940.77
2019-05-14T11:04:28.411Z,100942.04
2019-05-14T11:06:59.804Z,100928.56
2019-05-14T11:09:31.355Z,100934.08
2019-05-14T11:12:03.006Z,100934.99
2019-05-14T11:14:34.765Z,100935.30
2019-05-14T11:17:11.403Z,100926.00
2019-05-14T11:19:39.812Z,100938.73
2019-05-14T11:22:11.572Z,100938.30
2019-05-14T11:24:43.566Z,100937.74
2019-05-14T11:27:15.190Z,100929.33
2019-05-14T11:29:49.013Z,100944.31
2019-05-14T11:32:20.138Z,100942.02
2019-05-14T11:34:52.825Z,100943.95
2019-05-14T11:37:24.466Z,100938.30
2019-05-14T11:39:58.095Z,100935.78
2019-05-14T11:42:31.532Z,100936.58
2019-05-14T11:45:04.153Z,100939.56
2019-05-14T11:47:38.036Z,100929.44
2019-05-14T11:50:10.415Z,100936.98
2019-05-14T11:52:42.418Z,100932.14
2019-05-14T11:55:14.245Z,100918.77
2019-05-14T11:57:45.694Z,100921.91
2019-05-14T12:00:19.585Z,100920.95
2019-05-14T12:02:51.629Z,100919.49
2019-05-14T12:05:23.324Z,100920.55
2019-05-14T12:07:55.805Z,100922.84
2019-05-14T12:10:29.273Z,100913.46
2019-05-14T12:13:00.954Z,100913.23
2019-05-14T12:15:33.849Z,100908.44
2019-05-14T12:18:05.594Z,100906.44
2019-05-14T12:20:39.639Z,100906.45
2019-05-14T12:23:11.057Z,100903.12
2019-05-14T12:25:42.608Z,100899.72
2019-05-14T12:28:14.162Z,100906.77
2019-05-14T12:30:48.735Z,100904.38
2019-05-14T12:33:19.851Z,100903.78
2019-05-14T12:35:51.543Z,100896.16
2019-05-14T12:38:23.240Z,100883.52
2019-05-14T12:40:54.786Z,100891.83
2019-05-14T12:43:28.360Z,100892.21
2019-05-14T12:45:59.794Z,100891.94
2019-05-14T12:48:31.387Z,100890.20
2019-05-14T12:51:03.259Z,100892.89
2019-05-14T12:53:35.216Z,100885.16
2019-05-14T12:56:08.535Z,100886.22
2019-05-14T12:58:45.320Z,100873.16
2019-05-14T13:01:14.947Z,100880.41
2019-05-14T13:03:48.504Z,100880.89
2019-05-14T13:06:20.049Z,100885.41
2019-05-14T13:08:51.888Z,100886.84
2019-05-14T13:11:23.668Z,100891.23
2019-05-14T13:13:58.324Z,100888.02
2019-05-14T13:16:29.332Z,100889.95
2019-05-14T13:19:01.102Z,100886.47
2019-05-14T13:21:32.836Z,100892.38
2019-05-14T13:24:04.287Z,100883.83
2019-05-14T13:26:38.833Z,100885.06
2019-05-14T13:29:10.874Z,100879.45
2019-05-14T13:31:42.526Z,100877.98
2019-05-14T13:34:14.086Z,100880.41
2019-05-14T13:36:48.680Z,100885.16
2019-05-14T13:39:19.513Z,100870.80
2019-05-14T13:41:51.301Z,100877.39
2019-05-14T13:44:25.105Z,100866.83
2019-05-14T13:46:56.040Z,100866.84
2019-05-14T13:49:29.380Z,100867.79
2019-05-14T13:52:01.454Z,100868.92
2019-05-14T13:54:33.053Z,100869.96
2019-05-14T13:57:05.529Z,100862.16
2019-05-14T13:59:43.881Z,100863.80
2019-05-14T14:02:10.799Z,100872.13
2019-05-14T14:04:42.539Z,100874.39
2019-05-14T14:07:14.474Z,100866.95
2019-05-14T14:09:46.182Z,100861.61
2019-05-14T14:12:18.122Z,100859.35
2019-05-14T14:14:49.982Z,100861.28
2019-05-14T14:17:21.643Z,100862.26
2019-05-14T14:19:53.496Z,100864.84
2019-05-14T14:22:25.258Z,100871.43
2019-05-14T14:24:59.214Z,100866.86
2019-05-14T14:27:30.527Z,100867.66
2019-05-14T14:30:02.273Z,100865.27
2019-05-14T14:32:34.129Z,100866.44
2019-05-14T14:35:08.768Z,100865.47
2019-05-14T14:37:40.817Z,100860.37
2019-05-14T14:40:12.884Z,100868.91
2019-05-14T14:42:44.533Z,100865.92
2019-05-14T14:45:16.487Z,100860.80
2019-05-14T14:47:49.709Z,100857.80
2019-05-14T14:50:21.342Z,100861.63
2019-05-14T14:52:53.622Z,100855.67
2019-05-14T14:55:25.264Z,100867.98
2019-05-14T14:57:56.941Z,100866.28
2019-05-14T15:00:29.481Z,100871.05
2019-05-14T15:03:01.571Z,100868.59
2019-05-14T15:05:33.225Z,100867.86
2019-05-14T15:08:05.185Z,100876.75
2019-05-14T15:10:39.252Z,100879.44
2019-05-14T15:13:10.123Z,100878.72
2019-05-14T15:15:41.986Z,100888.66
2019-05-14T15:18:14.199Z,100883.30
2019-05-14T15:20:48.644Z,100880.30
2019-05-14T15:23:19.570Z,100885.05
2019-05-14T15:25:51.273Z,100887.00
2019-05-14T15:28:23.034Z,100890.92
2019-05-14T15:30:54.886Z,100892.56
2019-05-14T15:33:29.254Z,100891.02
2019-05-14T15:35:59.840Z,100887.58
2019-05-14T15:38:31.597Z,100879.23
2019-05-14T15:41:03.257Z,100875.61
2019-05-14T15:43:35.412Z,100880.33
2019-05-14T15:46:08.713Z,100879.48
2019-05-14T15:48:40.574Z,100881.73
2019-05-14T15:51:15.176Z,100880.23
2019-05-14T15:54:03.147Z,100889.38
2019-05-14T15:56:19.323Z,100896.15
2019-05-14T15:58:50.972Z,100891.86
2019-05-14T16:01:23.279Z,100890.86
2019-05-14T16:03:55.108Z,100896.90
2019-05-14T16:06:26.554Z,100904.05
2019-05-14T16:08:59.027Z,100904.16
2019-05-14T16:11:30.574Z,100907.48
2019-05-14T16:14:02.038Z,100898.16
2019-05-14T16:16:33.691Z,100903.45
2019-05-14T16:19:05.339Z,100906.38
2019-05-14T16:21:38.526Z,100905.64
2019-05-14T16:24:10.188Z,100910.44
2019-05-14T16:26:42.044Z,100903.19
2019-05-14T16:29:13.600Z,100902.30
2019-05-14T16:31:45.472Z,100911.55
2019-05-14T16:34:18.345Z,100909.02
2019-05-14T16:36:50.206Z,100909.52
2019-05-14T16:39:21.865Z,100914.83
2019-05-14T16:41:53.509Z,100907.55
2019-05-14T16:44:24.964Z,100899.30
2019-05-14T16:46:58.678Z,100911.02
2019-05-14T16:49:30.161Z,100905.61
2019-05-14T16:52:03.143Z,100908.79
2019-05-14T16:54:34.858Z,100905.81
2019-05-14T16:57:10.948Z,100909.26
2019-05-14T16:59:41.241Z,100911.80
2019-05-14T17:02:13.406Z,100918.17
2019-05-14T17:04:44.961Z,100922.19
2019-05-14T17:07:18.283Z,100925.89
2019-05-14T17:09:49.804Z,100923.61
2019-05-14T17:12:23.072Z,100918.48
2019-05-14T17:14:58.538Z,100914.27
2019-05-14T17:17:28.991Z,100909.78
2019-05-14T17:20:00.572Z,100916.72
2019-05-14T17:22:33.616Z,100919.22
2019-05-14T17:25:05.810Z,100924.13
2019-05-14T17:27:39.456Z,100924.07
2019-05-14T17:30:10.834Z,100926.52
2019-05-14T17:32:42.392Z,100930.58
2019-05-14T17:35:14.037Z,100939.66
2019-05-14T17:37:48.376Z,100936.75
2019-05-14T17:40:20.358Z,100938.37
2019-05-14T17:42:51.872Z,100934.75
2019-05-14T17:45:23.626Z,100937.61
2019-05-14T17:47:55.589Z,100937.98
2019-05-14T17:50:29.205Z,100936.33
2019-05-14T17:53:00.875Z,100938.09
2019-05-14T17:55:44.574Z,100930.00
2019-05-14T17:58:12.842Z,100939.48
2019-05-14T18:00:39.605Z,100942.34
2019-05-14T18:03:13.857Z,100942.08
2019-05-14T18:05:47.228Z,100943.53
2019-05-14T18:08:19.482Z,100937.65
2019-05-14T18:10:52.154Z,100941.66
2019-05-14T18:13:23.913Z,100947.69
2019-05-14T18:15:58.101Z,100945.84
2019-05-14T18:18:29.685Z,100947.75
2019-05-14T18:21:01.866Z,100946.77
2019-05-14T18:23:33.510Z,100942.39
2019-05-14T18:26:08.884Z,100948.57
2019-05-14T18:28:40.184Z,100949.55
2019-05-14T18:31:12.157Z,100945.17
2019-05-14T18:33:44.032Z,100941.21
2019-05-14T18:36:15.819Z,100942.56
2019-05-14T18:38:49.342Z,100954.39
2019-05-14T18:41:21.022Z,100952.88
2019-05-14T18:43:52.673Z,100959.13
2019-05-14T18:46:24.122Z,100951.45
2019-05-14T18:48:59.004Z,100953.47
2019-05-14T18:51:29.589Z,100958.00
2019-05-14T18:54:01.795Z,100948.08
2019-05-14T18:56:34.894Z,100957.91
2019-05-14T18:59:08.940Z,100951.36
2019-05-14T19:01:40.579Z,100951.95
2019-05-14T19:04:12.271Z,100953.88
2019-05-14T19:06:43.927Z,100954.09
2019-05-14T19:09:15.685Z,100950.82
2019-05-14T19:11:48.251Z,100954.67
2019-05-14T19:14:21.893Z,100955.87
2019-05-14T19:16:53.841Z,100956.41
2019-05-14T19:19:25.675Z,100955.55
2019-05-14T19:21:58.392Z,100947.95
2019-05-14T19:24:30.037Z,100948.17
2019-05-14T19:27:01.767Z,100946.05
2019-05-14T19:29:33.637Z,100947.47
2019-05-14T19:32:05.533Z,100949.89
2019-05-14T19:34:38.171Z,100944.89
2019-05-14T19:37:10.023Z,100942.19
2019-05-14T19:39:41.724Z,100948.34
2019-05-14T19:42:13.959Z,100949.89
2019-05-14T19:44:45.399Z,100953.36
2019-05-14T19:47:18.673Z,100954.70
2019-05-14T19:49:50.249Z,100949.52
2019-05-14T19:52:22.412Z,100948.34
2019-05-14T19:54:54.071Z,100950.74
2019-05-14T19:57:25.830Z,100950.83
2019-05-14T19:59:57.795Z,100944.69
2019-05-14T20:02:30.098Z,100933.36
2019-05-14T20:05:05.363Z,100938.66
2019-05-14T20:07:35.105Z,100941.14
2019-05-14T20:10:08.872Z,100948.53
2019-05-14T20:12:40.463Z,100946.03
2019-05-14T20:15:12.119Z,100941.91
2019-05-14T20:17:43.575Z,100940.56
2019-05-14T20:20:15.438Z,100939.11
2019-05-14T20:22:49.828Z,100936.35
2019-05-14T20:25:20.169Z,100934.52
2019-05-14T20:27:52.039Z,100935.86
2019-05-14T20:30:23.898Z,100937.18
2019-05-14T20:32:55.560Z,100933.23
2019-05-14T20:35:34.299Z,100944.12
2019-05-14T20:38:00.397Z,100942.08
2019-05-14T20:40:32.053Z,100943.91
2019-05-14T20:43:03.904Z,100945.64
2019-05-14T20:45:35.876Z,100940.23
2019-05-14T20:48:08.911Z,100933.91
2019-05-14T20:50:40.409Z,100937.13
2019-05-14T20:53:11.454Z,100938.77
2019-05-14T20:55:43.619Z,100940.90
2019-05-14T20:58:15.376Z,100946.64
2019-05-14T21:00:48.490Z,100946.39
2019-05-14T21:03:20.421Z,100945.41
2019-05-14T21:05:51.978Z,100943.81
2019-05-14T21:08:23.529Z,100944.63
2019-05-14T21:10:55.229Z,100941.70
2019-05-14T21:13:27.824Z,100936.31
2019-05-14T21:15:59.621Z,100935.33
2019-05-14T21:18:35.191Z,100941.84
2019-05-14T21:21:05.288Z,100939.58
2019-05-14T21:23:38.228Z,100942.05
2019-05-14T21:26:09.826Z,100940.50
2019-05-14T21:28:41.689Z,100938.38
2019-05-14T21:31:13.351Z,100945.09
2019-05-14T21:33:45.200Z,100949.39
2019-05-14T21:36:19.415Z,100942.77
2019-05-14T21:38:50.045Z,100950.39
2019-05-14T21:41:21.706Z,100950.59
2019-05-14T21:43:53.358Z,100951.81
2019-05-14T21:46:24.116Z,100939.27
2019-05-14T21:48:55.337Z,100939.30
2019-05-14T21:51:28.409Z,100934.69
2019-05-14T21:54:00.384Z,100943.52
2019-05-14T21:56:31.952Z,100938.93
2019-05-14T21:59:03.695Z,100935.27
2019-05-14T22:01:36.135Z,100942.95
2019-05-14T22:04:11.165Z,100934.41
2019-05-14T22:06:41.609Z,100928.63
2019-05-14T22:09:13.283Z,100929.09
2019-05-14T22:11:45.039Z,100930.17
2019-05-14T22:14:18.768Z,100938.04
2019-05-14T22:16:50.294Z,100930.69
2019-05-14T22:19:22.051Z,100934.15
2019-05-14T22:21:53.913Z,100925.41
2019-05-14T22:24:25.667Z,100921.66
2019-05-14T22:26:58.167Z,100920.75
2019-05-14T22:29:29.081Z,100922.95
2019-05-14T22:32:00.838Z,100927.27
2019-05-14T22:34:32.499Z,100924.48
2019-05-14T22:37:04.047Z,100924.36
2019-05-14T22:39:36.009Z,100927.80
2019-05-14T22:42:09.243Z,100920.89
2019-05-14T22:44:40.954Z,100917.20
2019-05-14T22:47:12.713Z,100921.23
2019-05-14T22:49:44.162Z,100920.33
2019-05-14T22:52:16.172Z,100922.36
2019-05-14T22:54:49.091Z,100924.07
2019-05-14T22:57:20.667Z,100920.48
2019-05-14T22:59:52.313Z,100920.80
2019-05-14T23:02:24.486Z,100921.30
2019-05-14T23:04:55.833Z,100918.36
2019-05-14T23:07:26.494Z,100925.47
2019-05-14T23:09:59.056Z,100925.47
2019-05-14T23:12:30.594Z,100921.00
2019-05-14T23:15:02.554Z,100926.14
2019-05-14T23:17:33.906Z,100928.73
2019-05-14T23:20:08.891Z,100933.62
2019-05-14T23:22:40.285Z,100934.73
2019-05-14T23:25:11.962Z,100940.09
2019-05-14T23:27:44.412Z,100933.73
2019-05-14T23:30:17.809Z,100928.61
2019-05-14T23:32:49.769Z,100927.99
2019-05-14T23:35:21.430Z,100931.13
2019-05-14T23:37:53.185Z,100928.58
2019-05-14T23:40:25.043Z,100932.91
2019-05-14T23:42:58.773Z,100936.31
2019-05-14T23:45:31.736Z,100931.19
2019-05-14T23:48:03.592Z,100936.22
2019-05-14T23:50:37.823Z,100934.19
2019-05-14T23:53:09.618Z,100931.17
2019-05-14T23:55:41.119Z,100927.39
2019-05-14T23:58:12.974Z,100918.42
